Time;durP1;ratioP1;P1;durP2;ratioP2;P2;SDS_P1;SDS_P2;PMS_P1;PMS_P2;Temp;Humidity;BMP_temperature;BMP_pressure;BME280_temperature;BME280_humidity;BME280_pressure;Samples;Min_cycle;Max_cycle;Signal;HPM_P1;HPM_P2
2022/07/23 00:00:14;;;;;;;1.52;0.77;;;18.00;91.40;;;;;;5070926;28;20044;-67
2022/07/23 00:02:41;;;;;;;1.15;0.70;;;18.00;91.50;;;;;;5066848;28;20052;-66
2022/07/23 00:05:07;;;;;;;1.33;0.80;;;17.90;91.60;;;;;;5083721;28;20035;-67
2022/07/23 00:07:33;;;;;;;1.00;0.68;;;17.90;91.70;;;;;;5067018;28;20107;-67
2022/07/23 00:09:59;;;;;;;2.38;0.98;;;17.80;91.80;;;;;;5069198;28;20040;-67
2022/07/23 00:12:24;;;;;;;2.55;0.77;;;17.70;91.90;;;;;;5068999;28;20070;-67
2022/07/23 00:14:50;;;;;;;1.40;0.80;;;17.70;92.00;;;;;;5070568;28;20037;-67
2022/07/23 00:17:16;;;;;;;1.58;0.90;;;17.70;92.10;;;;;;5068308;28;20031;-67
2022/07/23 00:19:41;;;;;;;1.98;0.90;;;17.60;92.10;;;;;;5070644;28;20023;-67
2022/07/23 00:22:07;;;;;;;1.15;0.80;;;17.50;92.20;;;;;;5069279;28;20028;-67
2022/07/23 00:24:32;;;;;;;1.00;0.70;;;17.50;92.20;;;;;;5069303;28;20031;-67
2022/07/23 00:26:58;;;;;;;2.55;0.80;;;17.40;92.30;;;;;;5067219;28;20024;-67
2022/07/23 00:29:23;;;;;;;2.95;0.90;;;17.40;92.40;;;;;;5067225;28;20660;-67
2022/07/23 00:31:49;;;;;;;1.65;0.93;;;17.40;92.40;;;;;;5069517;28;20104;-67
2022/07/23 00:34:14;;;;;;;2.53;0.82;;;17.40;92.50;;;;;;5068952;28;20020;-67
2022/07/23 00:36:41;;;;;;;1.88;1.10;;;17.30;92.40;;;;;;5067443;28;20020;-67
2022/07/23 00:39:06;;;;;;;3.03;1.10;;;17.30;92.50;;;;;;5067336;28;20017;-66
2022/07/23 00:41:32;;;;;;;1.50;1.08;;;17.20;92.50;;;;;;5069651;28;20396;-67
2022/07/23 00:44:18;;;;;;;1.42;0.93;;;17.20;92.60;;;;;;5068660;28;20450;-67
2022/07/23 00:46:58;;;;;;;1.60;1.10;;;17.20;92.60;;;;;;5066939;28;20519;-67
2022/07/23 00:49:28;;;;;;;1.48;1.00;;;17.10;92.70;;;;;;5066633;28;20017;-67
2022/07/23 00:51:54;;;;;;;2.28;0.90;;;17.10;92.80;;;;;;5069349;28;20027;-67
2022/07/23 00:54:23;;;;;;;1.58;1.00;;;17.00;92.90;;;;;;5066840;28;20021;-67
2022/07/23 00:56:48;;;;;;;1.48;0.80;;;17.00;92.90;;;;;;5067599;28;20024;-66
2022/07/23 00:59:14;;;;;;;2.50;0.90;;;17.00;93.00;;;;;;5067227;28;20071;-67
2022/07/23 01:01:40;;;;;;;1.23;1.00;;;17.00;93.00;;;;;;5069347;28;20101;-67
2022/07/23 01:04:06;;;;;;;1.75;1.10;;;16.90;93.00;;;;;;5067066;28;20091;-66
2022/07/23 01:06:36;;;;;;;1.90;1.27;;;16.90;93.10;;;;;;5068229;28;20040;-67
2022/07/23 01:09:03;;;;;;;2.60;1.23;;;16.90;93.20;;;;;;5067253;28;20028;-67
2022/07/23 01:11:31;;;;;;;1.60;1.00;;;16.80;93.30;;;;;;5068570;28;20036;-67
2022/07/23 01:13:56;;;;;;;1.50;1.00;;;16.70;93.40;;;;;;5066699;28;20017;-67
2022/07/23 01:16:22;;;;;;;1.92;0.80;;;16.70;93.50;;;;;;5067601;28;20043;-67
2022/07/23 01:18:47;;;;;;;2.22;1.10;;;16.60;93.50;;;;;;5066470;28;20028;-66
2022/07/23 01:21:13;;;;;;;2.30;1.10;;;16.60;93.60;;;;;;5068807;28;20040;-67
2022/07/23 01:23:40;;;;;;;1.73;0.90;;;16.50;93.70;;;;;;5066536;28;20032;-67
2022/07/23 01:26:05;;;;;;;2.33;1.20;;;16.60;93.70;;;;;;5066567;28;20032;-67
2022/07/23 01:28:31;;;;;;;2.15;1.20;;;16.50;93.70;;;;;;5068782;28;20504;-66
2022/07/23 01:30:56;;;;;;;3.42;0.85;;;16.50;93.80;;;;;;5067736;28;20039;-67
2022/07/23 01:33:22;;;;;;;2.53;1.20;;;16.50;93.80;;;;;;5064508;28;20538;-67
2022/07/23 01:35:47;;;;;;;2.35;1.35;;;16.40;93.90;;;;;;5066427;28;20485;-67
2022/07/23 01:38:13;;;;;;;1.40;1.02;;;16.40;93.90;;;;;;5068436;28;20031;-66
2022/07/23 01:40:39;;;;;;;2.50;1.40;;;16.40;94.00;;;;;;5067408;28;20377;-67
2022/07/23 01:43:05;;;;;;;2.60;1.25;;;16.40;94.10;;;;;;5066864;28;20024;-67
2022/07/23 01:45:30;;;;;;;2.90;0.98;;;16.30;94.10;;;;;;5069624;28;20528;-67
2022/07/23 01:47:56;;;;;;;2.22;1.40;;;16.30;94.20;;;;;;5066581;28;20024;-67
2022/07/23 01:50:21;;;;;;;2.22;1.52;;;16.30;94.30;;;;;;5068381;28;20029;-66
2022/07/23 01:52:47;;;;;;;2.15;1.30;;;16.20;94.40;;;;;;5067114;28;20040;-67
2022/07/23 01:55:12;;;;;;;1.90;1.23;;;16.20;94.50;;;;;;5068473;28;20554;-66
2022/07/23 01:57:38;;;;;;;1.50;1.10;;;16.20;94.50;;;;;;5064674;28;20056;-67
2022/07/23 02:00:04;;;;;;;1.70;1.30;;;16.20;94.60;;;;;;5067376;28;20404;-66
2022/07/23 02:02:30;;;;;;;1.75;1.05;;;16.10;94.70;;;;;;5066666;28;20028;-66
2022/07/23 02:04:55;;;;;;;2.25;1.02;;;16.00;94.70;;;;;;5066653;28;20033;-66
2022/07/23 02:07:21;;;;;;;2.20;1.23;;;16.10;94.80;;;;;;5066273;28;20138;-67
2022/07/23 02:09:46;;;;;;;2.30;1.20;;;16.10;95.20;;;;;;5067771;28;20036;-66
2022/07/23 02:12:12;;;;;;;2.03;1.20;;;16.00;94.90;;;;;;5065935;28;20021;-66
2022/07/23 02:14:37;;;;;;;1.73;1.05;;;16.00;95.00;;;;;;5066722;28;20169;-66
2022/07/23 02:17:03;;;;;;;1.60;1.02;;;16.00;95.10;;;;;;5065250;28;20047;-66
2022/07/23 02:19:29;;;;;;;3.05;1.20;;;16.00;95.10;;;;;;5069171;28;20484;-66
2022/07/23 02:21:54;;;;;;;2.13;1.30;;;16.00;95.20;;;;;;5066911;28;20059;-66
2022/07/23 02:24:20;;;;;;;4.70;1.45;;;15.90;95.20;;;;;;5065819;28;20025;-66
2022/07/23 02:26:45;;;;;;;1.70;1.08;;;15.90;95.30;;;;;;5066490;28;20052;-67
2022/07/23 02:29:11;;;;;;;1.52;1.23;;;15.90;95.40;;;;;;5067095;28;20028;-68
2022/07/23 02:31:37;;;;;;;1.98;1.33;;;15.90;95.40;;;;;;5069719;28;20074;-66
2022/07/23 02:34:02;;;;;;;2.05;1.83;;;15.90;95.50;;;;;;5068996;28;20464;-66
2022/07/23 02:36:28;;;;;;;1.83;1.30;;;15.90;95.50;;;;;;5065388;28;20488;-66
2022/07/23 02:38:54;;;;;;;2.47;1.48;;;15.90;95.60;;;;;;5068079;28;20063;-66
2022/07/23 02:41:19;;;;;;;3.13;1.58;;;15.80;95.60;;;;;;5067048;28;20556;-67
2022/07/23 02:43:45;;;;;;;2.63;1.50;;;15.80;95.70;;;;;;5066990;28;20082;-66
2022/07/23 02:46:10;;;;;;;2.45;1.60;;;15.80;95.80;;;;;;5064161;28;20032;-66
2022/07/23 02:48:36;;;;;;;2.15;1.40;;;15.70;95.90;;;;;;5068404;28;20123;-66
2022/07/23 02:51:02;;;;;;;2.05;1.40;;;15.70;96.00;;;;;;5066789;28;20548;-66
2022/07/23 02:53:27;;;;;;;2.70;1.50;;;15.70;96.10;;;;;;5067500;28;20084;-66
2022/07/23 02:55:53;;;;;;;2.30;1.35;;;15.70;96.10;;;;;;5065826;28;20024;-67
2022/07/23 02:58:18;;;;;;;3.13;1.58;;;15.60;96.10;;;;;;5066423;28;20124;-66
2022/07/23 03:00:44;;;;;;;2.15;1.40;;;15.60;96.20;;;;;;5067364;28;20119;-66
2022/07/23 03:03:09;;;;;;;2.08;1.40;;;15.60;96.30;;;;;;5066469;28;20029;-66
2022/07/23 03:05:35;;;;;;;3.60;1.48;;;15.60;96.40;;;;;;5066879;28;20525;-66
2022/07/23 03:08:01;;;;;;;4.05;1.48;;;15.50;96.40;;;;;;5065691;28;20549;-67
2022/07/23 03:10:26;;;;;;;2.40;1.45;;;15.50;96.50;;;;;;5066554;28;20032;-66
2022/07/23 03:12:52;;;;;;;1.80;1.08;;;15.50;96.60;;;;;;5065348;28;20518;-66
2022/07/23 03:15:17;;;;;;;1.67;1.33;;;15.50;96.60;;;;;;5067090;28;20024;-67
2022/07/23 03:17:43;;;;;;;2.55;1.27;;;15.50;96.70;;;;;;5065348;28;20059;-66
2022/07/23 03:20:09;;;;;;;1.50;1.17;;;15.40;96.70;;;;;;5065446;28;20131;-67
2022/07/23 03:22:35;;;;;;;1.83;1.25;;;15.40;96.70;;;;;;5065492;28;20036;-66
2022/07/23 03:25:01;;;;;;;3.05;1.40;;;15.40;96.80;;;;;;5066658;28;20033;-66
2022/07/23 03:27:29;;;;;;;1.70;1.27;;;15.30;96.80;;;;;;5066039;28;20555;-66
2022/07/23 03:29:58;;;;;;;2.25;1.33;;;15.30;96.90;;;;;;5066106;28;20029;-66
2022/07/23 03:32:24;;;;;;;2.20;1.07;;;15.30;97.00;;;;;;5065334;28;20516;-66
2022/07/23 03:34:50;;;;;;;3.05;1.02;;;15.30;97.00;;;;;;5065613;28;20274;-66
2022/07/23 03:37:17;;;;;;;1.90;1.40;;;15.20;97.10;;;;;;5066234;28;20013;-66
2022/07/23 03:39:43;;;;;;;3.63;1.30;;;15.20;97.10;;;;;;5071447;28;20020;-66
2022/07/23 03:42:09;;;;;;;1.60;1.27;;;15.20;97.10;;;;;;5068234;28;20036;-66
2022/07/23 03:44:36;;;;;;;3.03;1.20;;;15.10;97.10;;;;;;5070334;28;20024;-67
2022/07/23 03:47:03;;;;;;;3.28;1.25;;;15.10;97.20;;;;;;5068151;28;20503;-67
2022/07/23 03:49:28;;;;;;;3.03;1.13;;;15.00;97.30;;;;;;5070602;28;20117;-67
2022/07/23 03:51:54;;;;;;;2.20;1.23;;;15.00;97.30;;;;;;5083777;28;20064;-66
2022/07/23 03:54:19;;;;;;;1.95;0.90;;;15.00;97.30;;;;;;5068134;28;20028;-66
2022/07/23 03:56:45;;;;;;;1.92;1.10;;;15.00;97.30;;;;;;5070068;28;20031;-66
2022/07/23 03:59:11;;;;;;;1.55;1.00;;;15.00;97.30;;;;;;5068764;28;20047;-66
2022/07/23 04:01:36;;;;;;;1.30;1.00;;;14.90;97.30;;;;;;5070775;28;20416;-66
2022/07/23 04:04:02;;;;;;;3.45;1.50;;;14.90;97.40;;;;;;5068546;28;20441;-66
2022/07/23 04:06:28;;;;;;;1.65;1.15;;;14.90;97.40;;;;;;5068040;28;20048;-66
2022/07/23 04:08:53;;;;;;;2.30;1.42;;;14.90;97.40;;;;;;5068012;28;20481;-66
2022/07/23 04:11:19;;;;;;;2.50;1.50;;;14.80;97.50;;;;;;5070018;28;20028;-66
2022/07/23 04:13:44;;;;;;;2.55;1.27;;;14.80;97.50;;;;;;5067768;28;20495;-66
2022/07/23 04:16:10;;;;;;;2.40;1.20;;;14.80;97.50;;;;;;5070316;28;20035;-66
2022/07/23 04:18:35;;;;;;;5.53;1.50;;;14.80;97.50;;;;;;5069959;28;20031;-66
2022/07/23 04:21:01;;;;;;;3.72;1.60;;;14.80;97.50;;;;;;5069584;28;20021;-66
2022/07/23 04:23:26;;;;;;;2.55;1.33;;;14.80;97.60;;;;;;5067187;28;20062;-66
2022/07/23 04:25:52;;;;;;;2.13;1.30;;;14.80;97.60;;;;;;5067876;28;20028;-66
2022/07/23 04:28:18;;;;;;;1.95;1.30;;;14.80;97.60;;;;;;5069582;28;20522;-66
2022/07/23 04:30:43;;;;;;;1.73;1.40;;;14.80;97.70;;;;;;5069030;28;20063;-65
2022/07/23 04:33:09;;;;;;;2.55;1.27;;;14.90;97.70;;;;;;5066416;28;20432;-68
2022/07/23 04:35:35;;;;;;;2.13;1.40;;;14.90;97.80;;;;;;5068807;28;20024;-66
2022/07/23 04:38:00;;;;;;;1.48;1.30;;;14.80;97.80;;;;;;5068213;28;20104;-66
2022/07/23 04:40:27;;;;;;;1.98;1.52;;;14.90;97.90;;;;;;5064184;28;20725;-66
2022/07/23 04:42:53;;;;;;;2.22;1.80;;;14.90;98.00;;;;;;5070303;28;20062;-66
2022/07/23 04:45:18;;;;;;;2.55;1.38;;;14.80;98.10;;;;;;5068066;28;20577;-66
2022/07/23 04:47:44;;;;;;;2.05;1.25;;;14.80;98.20;;;;;;5067788;28;20043;-66
2022/07/23 04:50:10;;;;;;;2.10;1.30;;;14.80;98.30;;;;;;5068162;28;20039;-66
2022/07/23 04:52:35;;;;;;;2.42;1.50;;;14.80;98.40;;;;;;5069727;28;20021;-66
2022/07/23 04:55:01;;;;;;;1.85;1.27;;;14.80;98.40;;;;;;5067775;28;20021;-65
2022/07/23 04:57:26;;;;;;;1.20;0.98;;;14.90;98.40;;;;;;5069859;28;20032;-66
2022/07/23 04:59:52;;;;;;;3.88;1.95;;;14.90;98.50;;;;;;5064584;28;20052;-66
2022/07/23 05:02:17;;;;;;;2.47;2.28;;;14.90;98.60;;;;;;5069553;28;20032;-66
2022/07/23 05:04:43;;;;;;;2.67;2.25;;;14.70;99.10;;;;;;5067607;28;20024;-66
2022/07/23 05:07:08;;;;;;;2.15;1.85;;;14.60;99.50;;;;;;5067674;28;20469;-65
2022/07/23 05:09:34;;;;;;;2.60;1.50;;;14.70;99.80;;;;;;5064656;28;20480;-66
2022/07/23 05:12:00;;;;;;;2.85;1.60;;;14.70;99.80;;;;;;5069212;28;20039;-66
2022/07/23 05:14:25;;;;;;;3.22;1.70;;;14.80;99.90;;;;;;5067370;28;20035;-66
2022/07/23 05:16:51;;;;;;;2.85;1.27;;;14.80;99.80;;;;;;5067025;28;20020;-66
2022/07/23 05:19:16;;;;;;;2.63;1.60;;;14.90;99.80;;;;;;5066943;28;20025;-67
2022/07/23 05:21:42;;;;;;;1.50;1.05;;;14.90;99.80;;;;;;5066258;28;20440;-66
2022/07/23 05:24:07;;;;;;;1.60;1.40;;;15.00;99.80;;;;;;5083936;28;20030;-66
2022/07/23 05:26:33;;;;;;;2.30;1.60;;;15.10;99.80;;;;;;5065971;28;20020;-66
2022/07/23 05:28:58;;;;;;;1.90;1.60;;;15.10;99.70;;;;;;5067759;28;20053;-66
2022/07/23 05:31:24;;;;;;;3.28;1.45;;;15.20;99.70;;;;;;5068950;28;20067;-66
2022/07/23 05:33:50;;;;;;;2.30;1.42;;;15.20;99.70;;;;;;5067282;28;20048;-66
2022/07/23 05:36:15;;;;;;;2.38;1.60;;;15.20;99.70;;;;;;5067869;28;20059;-66
2022/07/23 05:38:41;;;;;;;1.98;1.63;;;15.30;99.80;;;;;;5066679;28;20024;-66
2022/07/23 05:41:06;;;;;;;2.65;1.55;;;15.30;99.70;;;;;;5069127;28;20098;-66
2022/07/23 05:43:34;;;;;;;3.17;1.70;;;15.40;99.80;;;;;;5065144;28;20028;-66
2022/07/23 05:46:00;;;;;;;1.70;1.38;;;15.40;99.80;;;;;;5067287;28;20404;-65
2022/07/23 05:48:25;;;;;;;2.03;1.50;;;15.40;99.80;;;;;;5067334;28;20074;-66
2022/07/23 05:50:51;;;;;;;2.30;1.50;;;15.50;99.80;;;;;;5070045;28;20032;-66
2022/07/23 05:53:17;;;;;;;2.10;1.77;;;15.50;99.90;;;;;;5066211;28;20070;-68
2022/07/23 05:55:42;;;;;;;2.75;1.48;;;15.50;99.90;;;;;;5066019;28;20104;-66
2022/07/23 05:58:08;;;;;;;2.67;1.58;;;15.60;99.90;;;;;;5068158;28;20039;-66
2022/07/23 06:00:34;;;;;;;2.95;1.45;;;15.60;99.90;;;;;;5063694;28;20336;-66
2022/07/23 06:03:00;;;;;;;2.47;1.65;;;15.70;99.90;;;;;;5069183;28;20028;-66
2022/07/23 06:05:25;;;;;;;2.83;1.40;;;15.70;99.90;;;;;;5071623;28;20047;-66
2022/07/23 06:07:51;;;;;;;2.00;1.55;;;15.80;99.90;;;;;;5068642;28;20434;-66
2022/07/23 06:10:17;;;;;;;2.83;1.85;;;15.80;99.90;;;;;;5072277;28;20108;-66
2022/07/23 06:12:42;;;;;;;2.13;1.65;;;15.80;99.90;;;;;;5063750;28;20028;-66
2022/07/23 06:15:09;;;;;;;2.00;1.48;;;15.90;99.90;;;;;;5072295;28;20082;-66
2022/07/23 06:17:34;;;;;;;3.08;1.73;;;15.90;99.90;;;;;;5062649;28;20021;-66
2022/07/23 06:20:00;;;;;;;2.10;1.60;;;16.00;99.90;;;;;;5070302;28;20028;-66
2022/07/23 06:22:25;;;;;;;2.08;1.38;;;16.00;99.90;;;;;;5068036;28;20052;-66
2022/07/23 06:24:51;;;;;;;4.07;1.55;;;16.10;99.90;;;;;;5068863;28;20111;-66
2022/07/23 06:27:17;;;;;;;2.05;1.50;;;16.10;99.90;;;;;;5066353;28;20036;-66
2022/07/23 06:29:43;;;;;;;3.13;2.00;;;16.20;99.90;;;;;;5067069;28;20391;-66
2022/07/23 06:32:08;;;;;;;2.92;2.05;;;16.20;99.80;;;;;;5068264;28;20043;-66
2022/07/23 06:34:34;;;;;;;3.13;2.03;;;16.20;99.80;;;;;;5062772;28;20020;-66
2022/07/23 06:37:00;;;;;;;2.00;1.70;;;16.20;99.80;;;;;;5060741;28;20024;-66
2022/07/23 06:39:26;;;;;;;3.00;1.70;;;16.30;99.80;;;;;;5068346;28;20041;-66
2022/07/23 06:41:51;;;;;;;4.22;2.00;;;16.40;99.80;;;;;;5057429;28;20100;-66
2022/07/23 06:44:18;;;;;;;2.28;1.60;;;16.40;99.70;;;;;;5069630;28;20021;-66
2022/07/23 06:46:43;;;;;;;2.53;1.63;;;16.40;99.70;;;;;;5066302;28;20103;-66
2022/07/23 06:49:09;;;;;;;2.00;1.48;;;16.50;99.60;;;;;;5061370;28;20120;-66
2022/07/23 06:51:35;;;;;;;1.95;1.23;;;16.50;99.60;;;;;;5060317;28;20473;-66
2022/07/23 06:54:01;;;;;;;1.90;1.33;;;16.60;99.50;;;;;;5070028;28;20027;-66
2022/07/23 06:56:27;;;;;;;2.60;1.38;;;16.70;99.50;;;;;;5056099;28;20423;-66
2022/07/23 06:58:52;;;;;;;3.88;1.40;;;16.70;99.30;;;;;;5070493;28;20048;-67
2022/07/23 07:01:18;;;;;;;2.17;1.20;;;16.80;99.20;;;;;;5057407;28;20021;-66
2022/07/23 07:03:44;;;;;;;1.63;1.00;;;16.80;99.10;;;;;;5069630;28;20021;-66
2022/07/23 07:06:10;;;;;;;1.60;1.40;;;16.90;99.00;;;;;;5067411;28;20035;-66
2022/07/23 07:08:35;;;;;;;1.95;1.10;;;16.90;99.10;;;;;;5064992;28;20030;-66
2022/07/23 07:11:01;;;;;;;2.10;1.10;;;17.00;98.70;;;;;;5061962;28;20483;-66
2022/07/23 07:13:40;;;;;;;1.95;1.00;;;17.00;98.60;;;;;;5059640;28;20024;-66
2022/07/23 07:16:06;;;;;;;2.85;1.58;;;17.10;98.40;;;;;;5057300;28;20022;-66
2022/07/23 07:18:31;;;;;;;2.50;1.25;;;17.10;98.30;;;;;;5058345;28;20025;-66
2022/07/23 07:20:57;;;;;;;3.58;0.95;;;17.20;98.20;;;;;;5064096;28;20024;-67
2022/07/23 07:23:23;;;;;;;2.15;1.05;;;17.30;98.00;;;;;;5063198;28;20041;-66
2022/07/23 07:25:49;;;;;;;2.85;1.20;;;17.30;97.90;;;;;;5060437;28;20086;-66
2022/07/23 07:28:14;;;;;;;1.90;1.25;;;17.40;97.90;;;;;;5075478;28;20028;-66
2022/07/23 07:30:40;;;;;;;1.98;1.60;;;17.40;97.80;;;;;;5057718;28;20082;-67
2022/07/23 07:33:06;;;;;;;3.25;1.45;;;17.50;97.60;;;;;;5066001;28;20024;-66
2022/07/23 07:35:32;;;;;;;2.53;1.58;;;17.60;97.40;;;;;;5058265;28;20599;-66
2022/07/23 07:37:59;;;;;;;5.78;2.60;;;17.60;97.20;;;;;;5074112;28;20029;-66
2022/07/23 07:40:24;;;;;;;2.38;1.52;;;17.70;96.80;;;;;;5074535;28;20017;-66
2022/07/23 07:42:53;;;;;;;2.58;1.20;;;17.70;96.70;;;;;;5074930;28;20499;-66
2022/07/23 07:45:23;;;;;;;3.70;1.07;;;17.90;96.60;;;;;;5055924;28;20016;-66
2022/07/23 07:47:48;;;;;;;;;;;17.90;96.40;;;;;;5068408;28;20353;-66
2022/07/23 07:50:14;;;;;;;3.08;1.38;;;18.00;96.40;;;;;;5067789;28;19978;-67
2022/07/23 07:52:40;;;;;;;2.47;1.60;;;18.00;96.30;;;;;;5055227;28;20032;-67
2022/07/23 07:55:07;;;;;;;3.95;2.42;;;18.10;96.10;;;;;;5061467;28;20033;-67
2022/07/23 07:57:34;;;;;;;3.85;1.70;;;18.20;95.70;;;;;;5060488;28;20048;-67
2022/07/23 07:59:59;;;;;;;3.30;1.75;;;18.20;95.60;;;;;;5074245;28;20040;-67
2022/07/23 08:02:25;;;;;;;2.58;1.45;;;18.30;95.60;;;;;;5057786;28;20036;-67
2022/07/23 08:04:50;;;;;;;2.10;1.02;;;18.40;95.50;;;;;;5066439;28;20033;-67
2022/07/23 08:07:16;;;;;;;5.55;1.65;;;18.50;95.50;;;;;;5064207;28;20024;-66
2022/07/23 08:09:42;;;;;;;1.90;1.10;;;18.50;95.20;;;;;;5067036;28;20051;-67
2022/07/23 08:12:08;;;;;;;4.93;1.42;;;18.60;95.10;;;;;;5070143;28;20029;-67
2022/07/23 08:14:34;;;;;;;3.38;1.10;;;18.70;94.90;;;;;;5068160;28;20070;-67
2022/07/23 08:16:59;;;;;;;4.15;1.00;;;18.80;94.80;;;;;;5065675;28;20030;-67
2022/07/23 08:19:25;;;;;;;1.17;0.90;;;18.90;94.70;;;;;;5050115;28;20024;-67
2022/07/23 08:21:50;;;;;;;2.33;1.15;;;18.90;94.50;;;;;;5055634;28;20329;-67
2022/07/23 08:24:16;;;;;;;3.33;1.20;;;19.10;94.30;;;;;;5066896;28;20028;-67
2022/07/23 08:26:41;;;;;;;1.77;1.20;;;19.10;94.10;;;;;;5069502;28;20024;-67
2022/07/23 08:29:07;;;;;;;2.78;2.08;;;19.20;93.90;;;;;;5068267;28;20541;-67
2022/07/23 08:31:33;;;;;;;2.63;1.40;;;19.30;93.90;;;;;;5060744;28;20028;-67
2022/07/23 08:33:59;;;;;;;2.20;1.50;;;19.30;93.50;;;;;;5076091;28;21262;-67
2022/07/23 08:36:27;;;;;;;2.83;1.35;;;19.40;93.40;;;;;;5059474;28;20047;-67
2022/07/23 08:38:53;;;;;;;2.05;1.33;;;19.50;93.30;;;;;;5069089;28;20025;-67
2022/07/23 08:41:19;;;;;;;1.98;1.50;;;19.60;93.20;;;;;;5057481;28;20029;-67
2022/07/23 08:43:45;;;;;;;2.30;1.30;;;19.60;93.00;;;;;;5060663;28;20031;-67
2022/07/23 08:46:12;;;;;;;2.13;1.38;;;19.70;92.80;;;;;;5061129;28;20033;-68
2022/07/23 08:48:38;;;;;;;2.10;1.08;;;19.80;92.90;;;;;;5072718;28;20066;-67
2022/07/23 08:51:06;;;;;;;3.63;1.98;;;19.90;92.60;;;;;;5060826;28;20112;-67
2022/07/23 08:53:33;;;;;;;2.63;1.40;;;20.00;92.50;;;;;;5061578;28;20017;-67
2022/07/23 08:56:03;;;;;;;3.38;1.90;;;20.00;92.40;;;;;;5060169;28;20489;-67
2022/07/23 08:58:29;;;;;;;2.95;1.67;;;20.00;91.70;;;;;;5069621;28;20052;-66
2022/07/23 09:00:58;;;;;;;2.35;1.58;;;20.10;91.60;;;;;;5064485;28;20037;-67
2022/07/23 09:03:27;;;;;;;3.45;1.50;;;20.20;91.50;;;;;;5064401;28;20017;-67
2022/07/23 09:05:53;;;;;;;2.77;1.53;;;20.30;91.50;;;;;;5064607;28;20045;-67
2022/07/23 09:08:21;;;;;;;1.92;0.98;;;20.30;91.40;;;;;;5070910;28;20078;-67
2022/07/23 09:10:53;;;;;;;2.88;0.90;;;20.40;91.30;;;;;;5068707;28;20469;-67
2022/07/23 09:13:43;;;;;;;2.92;1.30;;;20.50;91.20;;;;;;5069247;28;20495;-67
2022/07/23 09:16:16;;;;;;;2.60;1.45;;;20.60;90.90;;;;;;5083721;28;20017;-67
2022/07/23 09:18:44;;;;;;;2.67;1.00;;;20.70;90.60;;;;;;5054505;28;20108;-67
2022/07/23 09:21:19;;;;;;;1.40;1.10;;;20.80;90.50;;;;;;5068832;28;20515;-67
2022/07/23 09:23:49;;;;;;;2.67;1.63;;;20.90;90.60;;;;;;5066666;28;20040;-67
2022/07/23 09:26:18;;;;;;;2.95;1.35;;;21.00;90.00;;;;;;5067439;28;20024;-67
2022/07/23 09:28:51;;;;;;;;;;;21.10;89.50;;;;;;5069941;28;20025;-67
2022/07/23 09:31:17;;;;;;;1.92;1.30;;;21.00;89.30;;;;;;5069122;28;19920;-67
2022/07/23 09:33:42;;;;;;;1.58;1.23;;;21.10;88.80;;;;;;5055411;28;20021;-67
2022/07/23 09:36:09;;;;;;;3.03;1.45;;;21.20;88.20;;;;;;5059812;28;20024;-67
2022/07/23 09:38:50;;;;;;;2.17;1.00;;;21.20;87.40;;;;;;5068343;28;20461;-67
2022/07/23 09:41:16;;;;;;;2.72;1.10;;;21.40;87.20;;;;;;5053308;28;20429;-67
2022/07/23 09:43:42;;;;;;;2.63;1.00;;;21.40;86.70;;;;;;5053162;28;20028;-67
2022/07/23 09:46:25;;;;;;;1.90;1.00;;;21.60;86.30;;;;;;5068432;28;20033;-67
2022/07/23 09:48:56;;;;;;;2.50;1.00;;;21.70;85.70;;;;;;5061766;28;20044;-67
2022/07/23 09:51:38;;;;;;;1.83;0.90;;;21.80;85.10;;;;;;5058881;28;20150;-67
2022/07/23 09:54:26;;;;;;;2.30;0.63;;;21.90;84.90;;;;;;5069561;28;20075;-67
2022/07/23 09:56:53;;;;;;;1.35;0.93;;;22.10;84.40;;;;;;5054696;28;20048;-67
2022/07/23 09:59:26;;;;;;;3.72;1.30;;;22.10;83.80;;;;;;5055935;28;20056;-67
2022/07/23 10:01:56;;;;;;;2.38;1.00;;;22.20;83.50;;;;;;5069831;28;20024;-67
2022/07/23 10:04:23;;;;;;;2.00;0.80;;;22.40;83.20;;;;;;5082738;28;20480;-67
2022/07/23 10:06:53;;;;;;;1.52;0.95;;;22.40;82.70;;;;;;5058964;28;20040;-67
2022/07/23 10:09:30;;;;;;;1.55;0.98;;;22.50;82.00;;;;;;5055860;28;20368;-67
2022/07/23 10:14:33;;;;;;;3.38;0.70;;;22.60;81.20;;;;;;5061060;28;20009;-67
2022/07/23 10:17:02;;;;;;;3.80;1.45;;;22.70;81.00;;;;;;5059742;28;20070;-67
2022/07/23 10:19:28;;;;;;;4.20;1.65;;;22.80;80.00;;;;;;5061871;28;20377;-67
2022/07/23 10:21:59;;;;;;;1.75;1.20;;;22.80;79.40;;;;;;5058575;28;20492;-67
2022/07/23 10:24:56;;;;;;;2.50;0.90;;;22.80;78.70;;;;;;5053233;28;20025;-67
2022/07/23 10:27:42;;;;;;;2.22;1.00;;;23.00;78.70;;;;;;5084041;28;20044;-67
2022/07/23 10:30:25;;;;;;;2.78;1.00;;;23.10;78.60;;;;;;5054339;28;20487;-67
2022/07/23 10:33:06;;;;;;;1.80;1.00;;;23.20;78.20;;;;;;5063624;28;20104;-67
2022/07/23 10:35:47;;;;;;;2.03;0.73;;;23.30;78.40;;;;;;5069386;28;20024;-68
2022/07/23 10:38:34;;;;;;;1.45;0.80;;;23.40;78.10;;;;;;5070542;28;20032;-67
2022/07/23 10:41:03;;;;;;;2.95;0.80;;;23.50;77.90;;;;;;5067841;28;20025;-67
2022/07/23 10:43:30;;;;;;;1.30;0.88;;;23.70;77.80;;;;;;5068904;28;20096;-67
2022/07/23 10:46:44;;;;;;;1.70;1.20;;;23.80;77.30;;;;;;5072905;28;20079;-67
2022/07/23 10:49:30;;;;;;;1.50;1.00;;;24.00;76.40;;;;;;5066387;28;20094;-68
2022/07/23 10:52:14;;;;;;;1.30;0.85;;;24.00;75.60;;;;;;5062348;28;20035;-68
2022/07/23 10:54:40;;;;;;;1.88;1.00;;;24.20;74.80;;;;;;5075024;28;20024;-67
2022/07/23 10:57:08;;;;;;;2.95;1.00;;;24.20;74.60;;;;;;5065526;28;20017;-67
2022/07/23 11:00:22;;;;;;;1.45;1.02;;;24.30;74.20;;;;;;5059693;28;20037;-67
2022/07/23 11:02:49;;;;;;;1.88;1.00;;;24.30;74.00;;;;;;5073599;28;20470;-68
2022/07/23 11:05:18;;;;;;;2.13;1.25;;;24.40;74.20;;;;;;5072536;28;20412;-68
2022/07/23 11:08:16;;;;;;;2.65;1.23;;;24.50;73.60;;;;;;5072690;28;20021;-67
2022/07/23 11:11:04;;;;;;;1.35;0.90;;;24.70;72.90;;;;;;5074752;28;20020;-68
2022/07/23 11:13:38;;;;;;;2.08;1.13;;;24.70;72.80;;;;;;5063766;28;20124;-67
2022/07/23 11:16:06;;;;;;;2.58;0.93;;;24.90;73.40;;;;;;5065392;28;20112;-67
2022/07/23 11:18:57;;;;;;;1.88;1.27;;;25.00;73.20;;;;;;5060228;28;20075;-68
2022/07/23 11:21:28;;;;;;;1.27;0.93;;;25.10;71.40;;;;;;5058133;28;20492;-67
2022/07/23 11:24:00;;;;;;;1.60;1.00;;;25.20;71.30;;;;;;5061005;28;20020;-67
2022/07/23 11:26:41;;;;;;;1.83;0.80;;;25.30;70.50;;;;;;5070369;28;20017;-67
2022/07/23 11:29:28;;;;;;;1.30;0.98;;;25.50;70.60;;;;;;5063776;28;20017;-67
2022/07/23 11:32:03;;;;;;;2.33;1.40;;;25.70;69.90;;;;;;5067045;28;20025;-68
2022/07/23 11:34:39;;;;;;;1.10;0.70;;;25.70;68.90;;;;;;5061621;28;20017;-68
2022/07/23 11:37:12;;;;;;;2.03;1.30;;;25.90;68.80;;;;;;5060513;28;20029;-67
2022/07/23 11:39:39;;;;;;;1.48;0.93;;;26.00;68.70;;;;;;5061017;28;20024;-68
2022/07/23 11:42:07;;;;;;;1.80;1.20;;;26.10;68.40;;;;;;5064420;28;20028;-68
2022/07/23 11:44:35;;;;;;;2.00;1.15;;;26.20;68.00;;;;;;5069561;28;20070;-68
2022/07/23 11:47:05;;;;;;;2.60;0.90;;;26.30;67.60;;;;;;5088840;28;20020;-68
2022/07/23 11:49:32;;;;;;;1.48;0.82;;;26.30;67.10;;;;;;5065353;28;20032;-68
2022/07/23 11:52:05;;;;;;;1.67;1.10;;;26.30;67.20;;;;;;5066285;28;20020;-68
2022/07/23 11:54:31;;;;;;;2.60;0.80;;;26.50;66.70;;;;;;5067386;28;20025;-68
2022/07/23 11:56:58;;;;;;;1.63;0.80;;;26.60;66.10;;;;;;5060218;28;20260;-67
2022/07/23 11:59:26;;;;;;;3.25;0.90;;;26.70;64.70;;;;;;5063376;28;20064;-68
2022/07/23 12:01:58;;;;;;;1.15;0.70;;;26.80;63.70;;;;;;5067624;28;20089;-68
2022/07/23 12:05:03;;;;;;;1.52;0.80;;;27.00;63.40;;;;;;5083004;28;20032;-67
2022/07/23 12:07:35;;;;;;;1.23;0.85;;;27.20;63.20;;;;;;5022498;28;20022;-67
2022/07/23 12:10:15;;;;;;;1.65;1.40;;;27.40;62.60;;;;;;5032475;28;20504;-67
2022/07/23 12:12:42;;;;;;;2.03;0.90;;;27.50;60.00;;;;;;5050842;28;20036;-67
2022/07/23 12:15:09;;;;;;;1.77;0.80;;;27.40;60.40;;;;;;5063611;28;20017;-68
2022/07/23 12:17:37;;;;;;;1.33;0.80;;;27.60;60.90;;;;;;5067863;28;20028;-67
2022/07/23 12:20:05;;;;;;;3.22;1.08;;;27.80;60.50;;;;;;5065052;28;20048;-67
2022/07/23 12:22:37;;;;;;;1.40;0.80;;;27.90;59.00;;;;;;5061577;28;20433;-67
2022/07/23 12:25:06;;;;;;;1.40;0.90;;;28.00;59.20;;;;;;5067256;28;20040;-68
2022/07/23 12:27:31;;;;;;;2.60;0.85;;;28.10;58.50;;;;;;5067811;28;20028;-67
2022/07/23 12:29:57;;;;;;;2.97;0.80;;;28.10;58.20;;;;;;5060627;28;20032;-68
2022/07/23 12:32:27;;;;;;;1.10;0.70;;;28.10;57.50;;;;;;5076321;28;20021;-68
2022/07/23 12:35:07;;;;;;;1.17;0.77;;;28.30;58.00;;;;;;5062782;28;20507;-68
2022/07/23 12:37:36;;;;;;;1.95;0.88;;;28.60;57.50;;;;;;5060871;28;20028;-68
2022/07/23 12:40:30;;;;;;;1.20;0.70;;;28.70;56.50;;;;;;5063311;28;20024;-68
2022/07/23 12:43:00;;;;;;;1.63;1.10;;;28.90;56.30;;;;;;5060060;28;20771;-68
2022/07/23 12:45:27;;;;;;;0.88;0.60;;;29.00;56.00;;;;;;5061633;28;20077;-68
2022/07/23 12:47:58;;;;;;;2.88;0.95;;;29.10;55.70;;;;;;5066735;28;20025;-68
2022/07/23 12:50:43;;;;;;;1.00;0.73;;;29.20;54.30;;;;;;5055553;28;20032;-68
2022/07/23 12:53:16;;;;;;;1.65;0.80;;;29.30;54.30;;;;;;5073210;28;20060;-69
2022/07/23 12:55:42;;;;;;;1.48;0.88;;;29.50;54.10;;;;;;5072222;28;20052;-69